sensor_id;sensor_type;location;lat;lon;timestamp;pressure;altitude;pressure_sealevel;temperature;humidity
54600;BME280;40500;51.084;16.958;2023-11-19T00:00:38;100803.60;;;1.77;100.00
54600;BME280;40500;51.084;16.958;2023-11-19T00:03:30;100799.05;;;1.74;100.00
54600;BME280;40500;51.084;16.958;2023-11-19T00:06:05;100790.23;;;1.74;100.00
54600;BME280;40500;51.084;16.958;2023-11-19T00:08:37;100779.68;;;1.73;100.00
54600;BME280;40500;51.084;16.958;2023-11-19T00:11:09;100770.85;;;1.72;100.00
54600;BME280;40500;51.084;16.958;2023-11-19T00:13:41;100762.70;;;1.71;100.00
54600;BME280;40500;51.084;16.958;2023-11-19T00:16:13;100751.60;;;1.69;100.00
54600;BME280;40500;51.084;16.958;2023-11-19T00:18:47;100740.89;;;1.68;100.00
54600;BME280;40500;51.084;16.958;2023-11-19T00:21:20;100733.49;;;1.69;100.00
54600;BME280;40500;51.084;16.958;2023-11-19T00:23:52;100731.54;;;1.67;100.00
54600;BME280;40500;51.084;16.958;2023-11-19T00:26:24;100729.94;;;1.66;100.00
54600;BME280;40500;51.084;16.958;2023-11-19T00:28:57;100721.45;;;1.64;100.00
54600;BME280;40500;51.084;16.958;2023-11-19T00:31:30;100723.64;;;1.62;100.00
54600;BME280;40500;51.084;16.958;2023-11-19T00:34:02;100724.34;;;1.62;100.00
54600;BME280;40500;51.084;16.958;2023-11-19T00:36:34;100714.17;;;1.63;100.00
54600;BME280;40500;51.084;16.958;2023-11-19T00:39:06;100708.14;;;1.63;100.00
54600;BME280;40500;51.084;16.958;2023-11-19T00:41:38;100715.38;;;1.63;100.00
54600;BME280;40500;51.084;16.958;2023-11-19T00:44:10;100719.34;;;1.63;100.00
54600;BME280;40500;51.084;16.958;2023-11-19T00:46:44;100705.15;;;1.62;100.00
54600;BME280;40500;51.084;16.958;2023-11-19T00:49:16;100686.67;;;1.62;100.00
54600;BME280;40500;51.084;16.958;2023-11-19T00:51:48;100673.37;;;1.61;100.00
54600;BME280;40500;51.084;16.958;2023-11-19T00:54:20;100676.09;;;1.59;100.00
54600;BME280;40500;51.084;16.958;2023-11-19T00:56:56;100679.33;;;1.57;100.00
54600;BME280;40500;51.084;16.958;2023-11-19T00:59:28;100679.84;;;1.56;100.00
54600;BME280;40500;51.084;16.958;2023-11-19T01:02:00;100681.86;;;1.54;100.00
54600;BME280;40500;51.084;16.958;2023-11-19T01:04:36;100661.63;;;1.53;100.00
54600;BME280;40500;51.084;16.958;2023-11-19T01:07:09;100654.34;;;1.52;100.00
54600;BME280;40500;51.084;16.958;2023-11-19T01:09:44;100637.56;;;1.50;100.00
54600;BME280;40500;51.084;16.958;2023-11-19T01:12:16;100626.09;;;1.46;100.00
54600;BME280;40500;51.084;16.958;2023-11-19T01:14:48;100618.44;;;1.44;100.00
54600;BME280;40500;51.084;16.958;2023-11-19T01:17:20;100611.66;;;1.42;100.00
54600;BME280;40500;51.084;16.958;2023-11-19T01:19:52;100605.09;;;1.42;100.00
54600;BME280;40500;51.084;16.958;2023-11-19T01:22:24;100599.85;;;1.39;100.00
54600;BME280;40500;51.084;16.958;2023-11-19T01:24:57;100588.21;;;1.35;100.00
54600;BME280;40500;51.084;16.958;2023-11-19T01:27:29;100571.95;;;1.34;100.00
54600;BME280;40500;51.084;16.958;2023-11-19T01:30:01;100574.51;;;1.33;100.00
54600;BME280;40500;51.084;16.958;2023-11-19T01:32:35;100572.41;;;1.32;100.00
54600;BME280;40500;51.084;16.958;2023-11-19T01:35:09;100574.79;;;1.30;100.00
54600;BME280;40500;51.084;16.958;2023-11-19T01:37:41;100564.55;;;1.28;100.00
54600;BME280;40500;51.084;16.958;2023-11-19T01:40:14;100559.70;;;1.26;100.00
54600;BME280;40500;51.084;16.958;2023-11-19T01:42:47;100553.65;;;1.26;100.00
54600;BME280;40500;51.084;16.958;2023-11-19T01:45:28;100562.09;;;1.26;100.00
54600;BME280;40500;51.084;16.958;2023-11-19T01:48:03;100564.48;;;1.24;100.00
54600;BME280;40500;51.084;16.958;2023-11-19T01:50:35;100560.66;;;1.23;100.00
54600;BME280;40500;51.084;16.958;2023-11-19T01:53:08;100559.91;;;1.21;100.00
54600;BME280;40500;51.084;16.958;2023-11-19T01:55:40;100555.39;;;1.20;100.00
54600;BME280;40500;51.084;16.958;2023-11-19T01:58:12;100536.55;;;1.18;100.00
54600;BME280;40500;51.084;16.958;2023-11-19T02:00:45;100533.45;;;1.18;100.00
54600;BME280;40500;51.084;16.958;2023-11-19T02:03:18;100531.89;;;1.18;100.00
54600;BME280;40500;51.084;16.958;2023-11-19T02:05:51;100528.08;;;1.17;100.00
54600;BME280;40500;51.084;16.958;2023-11-19T02:08:24;100527.41;;;1.18;100.00
54600;BME280;40500;51.084;16.958;2023-11-19T02:10:56;100533.64;;;1.19;100.00
54600;BME280;40500;51.084;16.958;2023-11-19T02:13:28;100531.62;;;1.21;100.00
54600;BME280;40500;51.084;16.958;2023-11-19T02:16:01;100525.41;;;1.22;100.00
54600;BME280;40500;51.084;16.958;2023-11-19T02:18:33;100512.81;;;1.21;100.00
54600;BME280;40500;51.084;16.958;2023-11-19T02:21:06;100506.94;;;1.20;100.00
54600;BME280;40500;51.084;16.958;2023-11-19T02:23:38;100508.44;;;1.18;100.00
54600;BME280;40500;51.084;16.958;2023-11-19T02:26:18;100508.52;;;1.15;100.00
54600;BME280;40500;51.084;16.958;2023-11-19T02:28:54;100503.70;;;1.15;100.00
54600;BME280;40500;51.084;16.958;2023-11-19T02:31:26;100499.21;;;1.15;100.00
54600;BME280;40500;51.084;16.958;2023-11-19T02:33:59;100492.48;;;1.15;100.00
54600;BME280;40500;51.084;16.958;2023-11-19T02:36:33;100486.62;;;1.14;100.00
54600;BME280;40500;51.084;16.958;2023-11-19T02:39:06;100478.65;;;1.13;100.00
54600;BME280;40500;51.084;16.958;2023-11-19T02:41:41;100481.89;;;1.11;100.00
54600;BME280;40500;51.084;16.958;2023-11-19T02:44:13;100483.95;;;1.11;100.00
54600;BME280;40500;51.084;16.958;2023-11-19T02:46:45;100477.90;;;1.10;100.00
54600;BME280;40500;51.084;16.958;2023-11-19T02:49:19;100475.18;;;1.12;100.00
54600;BME280;40500;51.084;16.958;2023-11-19T02:51:51;100481.39;;;1.12;100.00
54600;BME280;40500;51.084;16.958;2023-11-19T02:54:23;100484.52;;;1.13;100.00
54600;BME280;40500;51.084;16.958;2023-11-19T02:56:57;100481.05;;;1.12;100.00
54600;BME280;40500;51.084;16.958;2023-11-19T02:59:32;100464.14;;;1.12;100.00
54600;BME280;40500;51.084;16.958;2023-11-19T03:02:10;100460.01;;;1.12;100.00
54600;BME280;40500;51.084;16.958;2023-11-19T03:04:43;100453.98;;;1.12;100.00
54600;BME280;40500;51.084;16.958;2023-11-19T03:07:16;100436.70;;;1.11;100.00
54600;BME280;40500;51.084;16.958;2023-11-19T03:09:48;100423.40;;;1.10;100.00
54600;BME280;40500;51.084;16.958;2023-11-19T03:12:21;100419.05;;;1.09;100.00
54600;BME280;40500;51.084;16.958;2023-11-19T03:14:53;100408.86;;;1.08;100.00
54600;BME280;40500;51.084;16.958;2023-11-19T03:17:26;100404.71;;;1.07;100.00
54600;BME280;40500;51.084;16.958;2023-11-19T03:19:58;100395.02;;;1.05;100.00
54600;BME280;40500;51.084;16.958;2023-11-19T03:22:32;100393.74;;;1.03;100.00
54600;BME280;40500;51.084;16.958;2023-11-19T03:25:06;100402.02;;;1.03;100.00
54600;BME280;40500;51.084;16.958;2023-11-19T03:27:39;100402.34;;;1.02;100.00
54600;BME280;40500;51.084;16.958;2023-11-19T03:30:14;100396.11;;;1.01;100.00
54600;BME280;40500;51.084;16.958;2023-11-19T03:32:48;100397.86;;;1.02;100.00
54600;BME280;40500;51.084;16.958;2023-11-19T03:35:20;100393.34;;;1.00;100.00
54600;BME280;40500;51.084;16.958;2023-11-19T03:37:53;100397.67;;;1.01;100.00
54600;BME280;40500;51.084;16.958;2023-11-19T03:40:25;100395.23;;;1.00;100.00
54600;BME280;40500;51.084;16.958;2023-11-19T03:42:58;100385.06;;;1.00;100.00
54600;BME280;40500;51.084;16.958;2023-11-19T03:45:30;100376.76;;;0.99;100.00
54600;BME280;40500;51.084;16.958;2023-11-19T03:48:03;100364.37;;;1.00;100.00
54600;BME280;40500;51.084;16.958;2023-11-19T03:50:35;100367.48;;;1.00;100.00
54600;BME280;40500;51.084;16.958;2023-11-19T03:53:07;100358.00;;;1.00;100.00
54600;BME280;40500;51.084;16.958;2023-11-19T03:55:39;100349.05;;;1.01;100.00
54600;BME280;40500;51.084;16.958;2023-11-19T03:58:11;100335.27;;;1.02;100.00
54600;BME280;40500;51.084;16.958;2023-11-19T04:00:44;100318.56;;;1.03;100.00
54600;BME280;40500;51.084;16.958;2023-11-19T04:03:16;100317.91;;;1.04;100.00
54600;BME280;40500;51.084;16.958;2023-11-19T04:05:51;100322.21;;;1.04;100.00
54600;BME280;40500;51.084;16.958;2023-11-19T04:08:23;100324.11;;;1.04;100.00
54600;BME280;40500;51.084;16.958;2023-11-19T04:10:55;100321.90;;;1.05;100.00
54600;BME280;40500;51.084;16.958;2023-11-19T04:13:27;100313.30;;;1.07;100.00
54600;BME280;40500;51.084;16.958;2023-11-19T04:15:59;100295.58;;;1.08;100.00
54600;BME280;40500;51.084;16.958;2023-11-19T04:18:32;100285.78;;;1.10;100.00
54600;BME280;40500;51.084;16.958;2023-11-19T04:21:07;100284.04;;;1.09;100.00
54600;BME280;40500;51.084;16.958;2023-11-19T04:23:40;100269.88;;;1.08;100.00
54600;BME280;40500;51.084;16.958;2023-11-19T04:26:12;100262.98;;;1.08;100.00
54600;BME280;40500;51.084;16.958;2023-11-19T04:28:44;100250.23;;;1.09;100.00
54600;BME280;40500;51.084;16.958;2023-11-19T04:31:17;100230.77;;;1.09;100.00
54600;BME280;40500;51.084;16.958;2023-11-19T04:33:49;100232.85;;;1.10;100.00
54600;BME280;40500;51.084;16.958;2023-11-19T04:36:25;100222.02;;;1.11;100.00
54600;BME280;40500;51.084;16.958;2023-11-19T04:38:58;100215.48;;;1.13;100.00
54600;BME280;40500;51.084;16.958;2023-11-19T04:41:30;100204.48;;;1.14;100.00
54600;BME280;40500;51.084;16.958;2023-11-19T04:44:02;100202.93;;;1.15;100.00
54600;BME280;40500;51.084;16.958;2023-11-19T04:46:35;100214.85;;;1.16;100.00
54600;BME280;40500;51.084;16.958;2023-11-19T04:49:07;100208.99;;;1.17;100.00
54600;BME280;40500;51.084;16.958;2023-11-19T04:51:41;100198.34;;;1.18;100.00
54600;BME280;40500;51.084;16.958;2023-11-19T04:54:13;100198.51;;;1.18;100.00
54600;BME280;40500;51.084;16.958;2023-11-19T04:56:47;100199.73;;;1.20;100.00
54600;BME280;40500;51.084;16.958;2023-11-19T04:59:19;100199.23;;;1.20;100.00
54600;BME280;40500;51.084;16.958;2023-11-19T05:01:51;100192.67;;;1.20;100.00
54600;BME280;40500;51.084;16.958;2023-11-19T05:04:23;100190.46;;;1.22;100.00
54600;BME280;40500;51.084;16.958;2023-11-19T05:06:56;100188.23;;;1.22;100.00
54600;BME280;40500;51.084;16.958;2023-11-19T05:09:28;100183.23;;;1.23;100.00
54600;BME280;40500;51.084;16.958;2023-11-19T05:12:01;100172.58;;;1.24;100.00
54600;BME280;40500;51.084;16.958;2023-11-19T05:14:33;100168.64;;;1.27;100.00
54600;BME280;40500;51.084;16.958;2023-11-19T05:17:06;100168.67;;;1.28;100.00
54600;BME280;40500;51.084;16.958;2023-11-19T05:19:38;100156.80;;;1.30;100.00
54600;BME280;40500;51.084;16.958;2023-11-19T05:22:10;100150.11;;;1.31;100.00
54600;BME280;40500;51.084;16.958;2023-11-19T05:24:43;100151.32;;;1.32;100.00
54600;BME280;40500;51.084;16.958;2023-11-19T05:27:15;100144.78;;;1.33;100.00
54600;BME280;40500;51.084;16.958;2023-11-19T05:29:47;100129.96;;;1.34;100.00
54600;BME280;40500;51.084;16.958;2023-11-19T05:32:19;100130.36;;;1.37;100.00
54600;BME280;40500;51.084;16.958;2023-11-19T05:34:51;100127.11;;;1.39;100.00
54600;BME280;40500;51.084;16.958;2023-11-19T05:37:24;100122.30;;;1.40;100.00
54600;BME280;40500;51.084;16.958;2023-11-19T05:39:56;100125.95;;;1.42;100.00
54600;BME280;40500;51.084;16.958;2023-11-19T05:42:28;100132.20;;;1.44;100.00
54600;BME280;40500;51.084;16.958;2023-11-19T05:45:00;100133.09;;;1.45;100.00
54600;BME280;40500;51.084;16.958;2023-11-19T05:47:32;100141.21;;;1.46;100.00
54600;BME280;40500;51.084;16.958;2023-11-19T05:50:07;100129.30;;;1.47;100.00
54600;BME280;40500;51.084;16.958;2023-11-19T05:52:39;100119.52;;;1.49;100.00
54600;BME280;40500;51.084;16.958;2023-11-19T05:55:11;100118.50;;;1.50;100.00
54600;BME280;40500;51.084;16.958;2023-11-19T05:57:44;100111.96;;;1.51;100.00
54600;BME280;40500;51.084;16.958;2023-11-19T06:00:17;100097.98;;;1.51;100.00
54600;BME280;40500;51.084;16.958;2023-11-19T06:02:49;100091.27;;;1.52;100.00
54600;BME280;40500;51.084;16.958;2023-11-19T06:05:22;100084.02;;;1.52;100.00
54600;BME280;40500;51.084;16.958;2023-11-19T06:07:53;100086.65;;;1.54;100.00
54600;BME280;40500;51.084;16.958;2023-11-19T06:10:26;100082.54;;;1.57;100.00
54600;BME280;40500;51.084;16.958;2023-11-19T06:13:01;100081.05;;;1.62;100.00
54600;BME280;40500;51.084;16.958;2023-11-19T06:15:35;100076.62;;;1.64;100.00
54600;BME280;40500;51.084;16.958;2023-11-19T06:18:08;100073.38;;;1.67;100.00
54600;BME280;40500;51.084;16.958;2023-11-19T06:20:40;100074.98;;;1.71;100.00
54600;BME280;40500;51.084;16.958;2023-11-19T06:23:13;100061.03;;;1.74;100.00
54600;BME280;40500;51.084;16.958;2023-11-19T06:25:45;80045.67;;;-24.20;79.80
54600;BME280;40500;51.084;16.958;2023-11-19T06:28:18;-1.00;;;-128.00;-1.00
54600;BME280;40500;51.084;16.958;2023-11-19T06:30:50;-1.00;;;-128.00;-1.00
54600;BME280;40500;51.084;16.958;2023-11-19T06:33:22;-1.00;;;-128.00;-1.00
54600;BME280;40500;51.084;16.958;2023-11-19T06:35:54;-1.00;;;-128.00;-1.00
54600;BME280;40500;51.084;16.958;2023-11-19T06:38:26;-1.00;;;-128.00;-1.00
54600;BME280;40500;51.084;16.958;2023-11-19T06:40:59;-1.00;;;-128.00;-1.00
54600;BME280;40500;51.084;16.958;2023-11-19T06:43:31;-1.00;;;-128.00;-1.00
54600;BME280;40500;51.084;16.958;2023-11-19T06:46:15;-1.00;;;-128.00;-1.00
54600;BME280;40500;51.084;16.958;2023-11-19T06:48:48;-1.00;;;-128.00;-1.00
54600;BME280;40500;51.084;16.958;2023-11-19T06:51:20;-1.00;;;-128.00;-1.00
54600;BME280;40500;51.084;16.958;2023-11-19T06:53:52;-1.00;;;-128.00;-1.00
54600;BME280;40500;51.084;16.958;2023-11-19T06:56:25;-1.00;;;-128.00;-1.00
54600;BME280;40500;51.084;16.958;2023-11-19T06:58:57;-1.00;;;-128.00;-1.00
54600;BME280;40500;51.084;16.958;2023-11-19T07:01:35;-1.00;;;-128.00;-1.00
54600;BME280;40500;51.084;16.958;2023-11-19T07:04:08;-1.00;;;-128.00;-1.00
54600;BME280;40500;51.084;16.958;2023-11-19T07:06:43;-1.00;;;-128.00;-1.00
54600;BME280;40500;51.084;16.958;2023-11-19T07:09:15;-1.00;;;-128.00;-1.00
54600;BME280;40500;51.084;16.958;2023-11-19T07:11:47;-1.00;;;-128.00;-1.00
54600;BME280;40500;51.084;16.958;2023-11-19T07:14:22;-1.00;;;-128.00;-1.00
54600;BME280;40500;51.084;16.958;2023-11-19T07:16:54;-1.00;;;-128.00;-1.00
54600;BME280;40500;51.084;16.958;2023-11-19T07:19:26;-1.00;;;-128.00;-1.00
54600;BME280;40500;51.084;16.958;2023-11-19T07:21:59;-1.00;;;-128.00;-1.00
54600;BME280;40500;51.084;16.958;2023-11-19T07:24:31;-1.00;;;-128.00;-1.00
54600;BME280;40500;51.084;16.958;2023-11-19T07:27:03;-1.00;;;-128.00;-1.00
54600;BME280;40500;51.084;16.958;2023-11-19T07:29:35;-1.00;;;-128.00;-1.00
54600;BME280;40500;51.084;16.958;2023-11-19T07:32:09;-1.00;;;-128.00;-1.00
54600;BME280;40500;51.084;16.958;2023-11-19T07:34:41;-1.00;;;-128.00;-1.00
54600;BME280;40500;51.084;16.958;2023-11-19T07:37:13;-1.00;;;-128.00;-1.00
54600;BME280;40500;51.084;16.958;2023-11-19T07:39:45;-1.00;;;-128.00;-1.00
54600;BME280;40500;51.084;16.958;2023-11-19T07:42:17;-1.00;;;-128.00;-1.00
54600;BME280;40500;51.084;16.958;2023-11-19T07:44:49;-1.00;;;-128.00;-1.00
54600;BME280;40500;51.084;16.958;2023-11-19T07:47:21;-1.00;;;-128.00;-1.00
54600;BME280;40500;51.084;16.958;2023-11-19T07:49:54;-1.00;;;-128.00;-1.00
54600;BME280;40500;51.084;16.958;2023-11-19T07:52:26;-1.00;;;-128.00;-1.00
54600;BME280;40500;51.084;16.958;2023-11-19T07:54:59;-1.00;;;-128.00;-1.00
54600;BME280;40500;51.084;16.958;2023-11-19T07:57:31;-1.00;;;-128.00;-1.00
54600;BME280;40500;51.084;16.958;2023-11-19T08:00:04;-1.00;;;-128.00;-1.00
54600;BME280;40500;51.084;16.958;2023-11-19T08:02:42;-1.00;;;-128.00;-1.00
54600;BME280;40500;51.084;16.958;2023-11-19T08:05:14;-1.00;;;-128.00;-1.00
54600;BME280;40500;51.084;16.958;2023-11-19T08:07:47;-1.00;;;-128.00;-1.00
54600;BME280;40500;51.084;16.958;2023-11-19T08:10:19;-1.00;;;-128.00;-1.00
54600;BME280;40500;51.084;16.958;2023-11-19T08:12:51;-1.00;;;-128.00;-1.00
54600;BME280;40500;51.084;16.958;2023-11-19T08:15:23;-1.00;;;-128.00;-1.00
54600;BME280;40500;51.084;16.958;2023-11-19T08:17:58;-1.00;;;-128.00;-1.00
54600;BME280;40500;51.084;16.958;2023-11-19T08:20:30;-1.00;;;-128.00;-1.00
54600;BME280;40500;51.084;16.958;2023-11-19T08:23:03;-1.00;;;-128.00;-1.00
54600;BME280;40500;51.084;16.958;2023-11-19T08:25:35;-1.00;;;-128.00;-1.00
54600;BME280;40500;51.084;16.958;2023-11-19T08:28:07;-1.00;;;-128.00;-1.00
54600;BME280;40500;51.084;16.958;2023-11-19T08:30:40;-1.00;;;-128.00;-1.00
54600;BME280;40500;51.084;16.958;2023-11-19T08:33:13;-1.00;;;-128.00;-1.00
54600;BME280;40500;51.084;16.958;2023-11-19T08:35:50;-1.00;;;-128.00;-1.00
54600;BME280;40500;51.084;16.958;2023-11-19T08:38:23;-1.00;;;-128.00;-1.00
54600;BME280;40500;51.084;16.958;2023-11-19T08:40:59;-1.00;;;-128.00;-1.00
54600;BME280;40500;51.084;16.958;2023-11-19T08:43:32;-1.00;;;-128.00;-1.00
54600;BME280;40500;51.084;16.958;2023-11-19T08:46:11;-1.00;;;-128.00;-1.00
54600;BME280;40500;51.084;16.958;2023-11-19T08:48:44;-1.00;;;-128.00;-1.00
54600;BME280;40500;51.084;16.958;2023-11-19T08:51:18;-1.00;;;-128.00;-1.00
54600;BME280;40500;51.084;16.958;2023-11-19T08:53:54;-1.00;;;-128.00;-1.00
54600;BME280;40500;51.084;16.958;2023-11-19T08:56:30;-1.00;;;-128.00;-1.00
54600;BME280;40500;51.084;16.958;2023-11-19T08:59:06;-1.00;;;-128.00;-1.00
54600;BME280;40500;51.084;16.958;2023-11-19T09:01:40;-1.00;;;-128.00;-1.00
54600;BME280;40500;51.084;16.958;2023-11-19T09:04:14;-1.00;;;-128.00;-1.00
54600;BME280;40500;51.084;16.958;2023-11-19T09:06:47;-1.00;;;-128.00;-1.00
54600;BME280;40500;51.084;16.958;2023-11-19T09:09:19;-1.00;;;-128.00;-1.00
54600;BME280;40500;51.084;16.958;2023-11-19T09:11:52;-1.00;;;-128.00;-1.00
54600;BME280;40500;51.084;16.958;2023-11-19T09:14:24;-1.00;;;-128.00;-1.00
54600;BME280;40500;51.084;16.958;2023-11-19T09:16:57;-1.00;;;-128.00;-1.00
54600;BME280;40500;51.084;16.958;2023-11-19T09:19:32;-1.00;;;-128.00;-1.00
54600;BME280;40500;51.084;16.958;2023-11-19T09:22:06;-1.00;;;-128.00;-1.00
54600;BME280;40500;51.084;16.958;2023-11-19T09:24:38;-1.00;;;-128.00;-1.00
54600;BME280;40500;51.084;16.958;2023-11-19T09:27:11;-1.00;;;-128.00;-1.00
54600;BME280;40500;51.084;16.958;2023-11-19T09:29:43;-1.00;;;-128.00;-1.00
54600;BME280;40500;51.084;16.958;2023-11-19T09:32:17;-1.00;;;-128.00;-1.00
54600;BME280;40500;51.084;16.958;2023-11-19T09:34:50;-1.00;;;-128.00;-1.00
54600;BME280;40500;51.084;16.958;2023-11-19T09:37:23;-1.00;;;-128.00;-1.00
54600;BME280;40500;51.084;16.958;2023-11-19T09:40:43;-1.00;;;-128.00;-1.00
54600;BME280;40500;51.084;16.958;2023-11-19T09:43:20;-1.00;;;-128.00;-1.00
54600;BME280;40500;51.084;16.958;2023-11-19T09:45:53;-1.00;;;-128.00;-1.00
54600;BME280;40500;51.084;16.958;2023-11-19T09:48:27;-1.00;;;-128.00;-1.00
54600;BME280;40500;51.084;16.958;2023-11-19T09:51:00;-1.00;;;-128.00;-1.00
54600;BME280;40500;51.084;16.958;2023-11-19T09:53:33;-1.00;;;-128.00;-1.00
54600;BME280;40500;51.084;16.958;2023-11-19T09:56:07;-1.00;;;-128.00;-1.00
54600;BME280;40500;51.084;16.958;2023-11-19T09:58:42;-1.00;;;-128.00;-1.00
54600;BME280;40500;51.084;16.958;2023-11-19T10:01:16;-1.00;;;-128.00;-1.00
54600;BME280;40500;51.084;16.958;2023-11-19T10:03:59;-1.00;;;-128.00;-1.00
54600;BME280;40500;51.084;16.958;2023-11-19T10:06:33;-1.00;;;-128.00;-1.00
54600;BME280;40500;51.084;16.958;2023-11-19T10:09:07;-1.00;;;-128.00;-1.00
54600;BME280;40500;51.084;16.958;2023-11-19T10:11:43;-1.00;;;-128.00;-1.00
54600;BME280;40500;51.084;16.958;2023-11-19T10:14:16;-1.00;;;-128.00;-1.00
54600;BME280;40500;51.084;16.958;2023-11-19T10:16:50;-1.00;;;-128.00;-1.00
54600;BME280;40500;51.084;16.958;2023-11-19T10:19:24;-1.00;;;-128.00;-1.00
54600;BME280;40500;51.084;16.958;2023-11-19T10:21:56;-1.00;;;-128.00;-1.00
54600;BME280;40500;51.084;16.958;2023-11-19T10:24:34;-1.00;;;-128.00;-1.00
54600;BME280;40500;51.084;16.958;2023-11-19T10:27:14;-1.00;;;-128.00;-1.00
54600;BME280;40500;51.084;16.958;2023-11-19T10:29:50;-1.00;;;-128.00;-1.00
54600;BME280;40500;51.084;16.958;2023-11-19T10:32:22;-1.00;;;-128.00;-1.00
54600;BME280;40500;51.084;16.958;2023-11-19T10:35:17;-1.00;;;-128.00;-1.00
54600;BME280;40500;51.084;16.958;2023-11-19T10:37:50;-1.00;;;-128.00;-1.00
54600;BME280;40500;51.084;16.958;2023-11-19T10:40:22;-1.00;;;-128.00;-1.00
54600;BME280;40500;51.084;16.958;2023-11-19T10:43:05;-1.00;;;-128.00;-1.00
54600;BME280;40500;51.084;16.958;2023-11-19T10:45:39;-1.00;;;-128.00;-1.00
54600;BME280;40500;51.084;16.958;2023-11-19T10:48:13;-1.00;;;-128.00;-1.00
54600;BME280;40500;51.084;16.958;2023-11-19T10:50:49;-1.00;;;-128.00;-1.00
54600;BME280;40500;51.084;16.958;2023-11-19T10:53:25;-1.00;;;-128.00;-1.00
54600;BME280;40500;51.084;16.958;2023-11-19T10:56:01;-1.00;;;-128.00;-1.00
54600;BME280;40500;51.084;16.958;2023-11-19T10:58:34;-1.00;;;-128.00;-1.00
54600;BME280;40500;51.084;16.958;2023-11-19T11:01:13;-1.00;;;-128.00;-1.00
54600;BME280;40500;51.084;16.958;2023-11-19T11:03:54;-1.00;;;-128.00;-1.00
54600;BME280;40500;51.084;16.958;2023-11-19T11:06:28;-1.00;;;-128.00;-1.00
54600;BME280;40500;51.084;16.958;2023-11-19T11:09:24;-1.00;;;-128.00;-1.00
54600;BME280;40500;51.084;16.958;2023-11-19T11:12:00;-1.00;;;-128.00;-1.00
54600;BME280;40500;51.084;16.958;2023-11-19T11:14:44;-1.00;;;-128.00;-1.00
54600;BME280;40500;51.084;16.958;2023-11-19T11:17:21;-1.00;;;-128.00;-1.00
54600;BME280;40500;51.084;16.958;2023-11-19T11:19:59;-1.00;;;-128.00;-1.00
54600;BME280;40500;51.084;16.958;2023-11-19T11:23:02;-1.00;;;-128.00;-1.00
